Date,TemperatureHighF,TemperatureAvgF,TemperatureLowF,DewpointHighF,DewpointAvgF,DewpointLowF,HumidityHigh,HumidityAvg,HumidityLow,PressureMaxIn,PressureMinIn,WindSpeedMaxMPH,WindSpeedAvgMPH,GustSpeedMaxMPH,PrecipitationSumIn
2013-3-1,44,30,26,25,19,17,73,64,42,29.42,29.36,17,3,17,0.00
2013-3-2,39,28,20,22,17,7,73,63,40,29.44,29.36,18,3,18,0.01
2013-3-3,43,24,16,11,5,-1,64,47,21,29.49,29.40,16,4,17,0.00
2013-3-4,58,33,16,25,12,-11,77,45,17,29.60,29.48,18,3,18,0.00
2013-3-5,50,40,27,47,36,20,97,84,59,29.58,29.23,36,4,36,0.72
2013-3-6,30,24,19,21,17,14,83,76,62,29.61,29.26,0,0,0,0.01
2013-3-7,67,33,14,29,18,8,83,61,15,29.73,29.58,16,1,16,0.05
2013-3-8,69,38,19,69,20,6,90,54,10,29.79,29.71,9,1,12,0.00
2013-3-9,75,43,22,75,27,8,87,51,10,29.80,29.72,15,2,15,0.00
2013-3-10,70,48,30,37,26,10,85,51,10,29.76,29.67,9,3,13,0.00
2013-3-11,51,48,46,50,46,37,99,93,67,29.68,29.38,23,5,23,1.04
2013-3-12,63,46,29,50,28,4,99,63,13,29.58,29.36,17,4,20,0.06
2013-3-13,47,35,23,26,16,5,84,49,21,29.66,29.55,23,6,26,0.00
2013-3-14,53,32,15,14,5,-7,75,39,14,29.73,29.64,24,4,24,0.00
2013-3-15,69,47,26,40,28,8,88,53,22,29.70,29.54,31,6,31,0.00
2013-3-16,75,58,50,44,40,37,61,51,30,29.55,29.44,29,8,31,0.00
2013-3-17,73,56,46,46,41,37,84,59,29,29.57,29.49,16,4,20,0.00
2013-3-18,53,48,41,49,45,41,99,91,75,29.56,29.40,21,3,21,0.72
2013-3-19,62,44,28,44,23,4,99,56,12,29.62,29.43,20,4,23,0.01
2013-3-20,58,36,22,27,13,-5,85,48,13,29.61,29.39,22,4,22,0.00
2013-3-21,46,28,17,22,1,-15,77,35,15,29.42,29.31,22,5,22,0.00
2013-3-22,45,31,16,28,16,-1,74,56,21,29.53,29.42,12,2,12,0.00
2013-3-23,63,44,35,47,39,27,99,83,55,29.53,29.36,8,1,8,0.17
2013-3-24,55,45,34,48,42,27,99,89,69,29.44,29.06,23,4,23,1.09
2013-3-25,34,26,22,28,19,15,83,75,62,29.43,29.13,21,0,22,0.00
2013-3-26,35,26,22,19,16,14,81,66,48,29.67,29.40,13,2,16,0.01
2013-3-27,54,32,17,18,11,2,77,47,15,29.73,29.64,19,4,19,0.00
2013-3-28,58,35,20,18,12,4,82,47,13,29.80,29.70,21,4,23,0.00
2013-3-29,51,32,19,34,24,13,87,72,26,29.83,29.74,11,1,11,0.02
2013-3-30,67,48,35,46,34,21,97,67,20,29.74,29.59,16,2,16,0.27
2013-3-31,56,50,46,50,47,45,99,90,71,29.60,29.44,25,6,25,1.09